createdAt,value
2018-12-06T00:00:14.586Z,0
2018-12-06T00:01:06.558Z,0
2018-12-06T00:01:59.509Z,0
2018-12-06T00:02:52.138Z,0
2018-12-06T00:03:44.479Z,0
2018-12-06T00:04:37.135Z,0
2018-12-06T00:05:29.605Z,0
2018-12-06T00:06:22.095Z,0
2018-12-06T00:07:14.371Z,0
2018-12-06T00:08:06.953Z,0
2018-12-06T00:08:59.407Z,0
2018-12-06T00:09:52.101Z,0
2018-12-06T00:10:44.365Z,0
2018-12-06T00:11:36.671Z,0
2018-12-06T00:12:29.486Z,0
2018-12-06T00:13:21.802Z,0
2018-12-06T00:14:14.150Z,0
2018-12-06T00:15:06.452Z,0
2018-12-06T00:15:59.161Z,0
2018-12-06T00:16:51.660Z,0
2018-12-06T00:17:44.647Z,0
2018-12-06T00:18:37.524Z,0
2018-12-06T00:19:29.648Z,0
2018-12-06T00:20:22.056Z,0
2018-12-06T00:21:13.559Z,0
2018-12-06T00:22:07.074Z,0
2018-12-06T00:22:59.012Z,0
2018-12-06T00:23:51.102Z,0
2018-12-06T00:24:32.609Z,0
2018-12-06T00:25:13.481Z,0
2018-12-06T00:25:53.867Z,0
2018-12-06T00:26:34.265Z,0
2018-12-06T00:27:14.846Z,0
2018-12-06T00:27:55.289Z,0
2018-12-06T00:28:36.703Z,0
2018-12-06T00:29:17.938Z,0
2018-12-06T00:29:58.346Z,0
2018-12-06T00:30:39.352Z,0
2018-12-06T00:31:19.752Z,0
2018-12-06T00:32:00.537Z,0
2018-12-06T00:32:40.809Z,0
2018-12-06T00:33:21.271Z,0
2018-12-06T00:34:01.936Z,0
2018-12-06T00:34:42.609Z,0
2018-12-06T00:35:22.974Z,0
2018-12-06T00:36:03.364Z,0
2018-12-06T00:36:43.888Z,0
2018-12-06T00:37:24.502Z,0
2018-12-06T00:38:05.222Z,0
2018-12-06T00:38:45.536Z,0
2018-12-06T00:39:26.664Z,0
2018-12-06T00:40:07.605Z,0
2018-12-06T00:40:48.252Z,0
2018-12-06T00:41:28.986Z,0
2018-12-06T00:42:09.366Z,0
2018-12-06T00:42:49.936Z,0
2018-12-06T00:43:30.647Z,0
2018-12-06T00:44:10.973Z,0
2018-12-06T00:44:51.399Z,0
2018-12-06T00:45:32.011Z,0
2018-12-06T00:46:12.731Z,0
2018-12-06T00:46:53.431Z,0
2018-12-06T00:47:34.533Z,0
2018-12-06T00:48:15.185Z,0
2018-12-06T00:48:55.595Z,0
2018-12-06T00:49:36.241Z,0
2018-12-06T00:50:16.721Z,0
2018-12-06T00:50:57.018Z,0
2018-12-06T00:51:37.792Z,0
2018-12-06T00:52:18.546Z,0
2018-12-06T00:53:00.066Z,0
2018-12-06T00:53:40.772Z,0
2018-12-06T00:54:23.575Z,0
2018-12-06T00:55:04.456Z,0
2018-12-06T00:55:46.199Z,0
2018-12-06T00:56:29.310Z,0
2018-12-06T00:57:09.704Z,0
2018-12-06T00:57:51.186Z,0
2018-12-06T00:58:32.527Z,0
2018-12-06T00:59:13.384Z,0
2018-12-06T00:59:55.237Z,0
2018-12-06T01:00:37.110Z,0
2018-12-06T01:01:16.971Z,0
2018-12-06T01:01:57.960Z,0
2018-12-06T01:02:40.238Z,0
2018-12-06T01:03:21.036Z,0
2018-12-06T01:04:04.622Z,0
2018-12-06T01:06:39.714Z,0
2018-12-06T01:07:20.094Z,0
2018-12-06T01:08:00.427Z,0
2018-12-06T01:08:40.869Z,0
2018-12-06T01:09:21.327Z,0
2018-12-06T01:10:02.405Z,0
2018-12-06T01:10:42.811Z,0
2018-12-06T01:11:23.201Z,0
2018-12-06T01:12:03.604Z,0
2018-12-06T01:12:43.975Z,0
2018-12-06T01:13:24.365Z,0
2018-12-06T01:14:04.763Z,0
2018-12-06T01:14:45.133Z,0
2018-12-06T01:18:39.359Z,0
2018-12-06T01:19:32.571Z,0
2018-12-06T01:20:26.451Z,0
2018-12-06T01:21:20.566Z,0
2018-12-06T01:22:12.862Z,0
2018-12-06T01:23:05.064Z,0
2018-12-06T01:23:57.613Z,0
2018-12-06T01:24:50.211Z,0
2018-12-06T01:25:42.973Z,0
2018-12-06T01:26:37.080Z,0
2018-12-06T01:27:29.002Z,0
2018-12-06T01:28:21.968Z,0
2018-12-06T01:29:15.538Z,0
2018-12-06T01:30:11.012Z,0
2018-12-06T01:31:03.260Z,0
2018-12-06T01:31:55.730Z,0
2018-12-06T01:32:48.206Z,0
2018-12-06T01:33:44.547Z,0
2018-12-06T01:34:37.976Z,0
2018-12-06T01:35:33.320Z,0
2018-12-06T01:36:25.961Z,0
2018-12-06T01:37:20.785Z,0
2018-12-06T01:38:13.172Z,0
2018-12-06T01:39:09.026Z,0
2018-12-06T01:40:02.303Z,0
2018-12-06T01:40:54.848Z,0
2018-12-06T01:41:48.234Z,0
2018-12-06T01:42:40.587Z,0
2018-12-06T01:43:32.765Z,0
2018-12-06T01:44:27.957Z,0
2018-12-06T01:45:22.125Z,0
2018-12-06T01:46:14.343Z,0
2018-12-06T01:47:06.972Z,0
2018-12-06T01:47:59.906Z,0
2018-12-06T01:48:51.999Z,0
2018-12-06T01:49:44.719Z,0
2018-12-06T01:50:38.823Z,0
2018-12-06T01:51:31.053Z,0
2018-12-06T01:52:23.606Z,0
2018-12-06T01:53:16.476Z,0
2018-12-06T01:54:08.614Z,0
2018-12-06T01:55:03.065Z,0
2018-12-06T01:55:58.258Z,0
2018-12-06T01:56:52.475Z,0
2018-12-06T01:57:47.495Z,0
2018-12-06T01:58:41.058Z,0
2018-12-06T01:59:34.830Z,0
2018-12-06T02:00:27.703Z,0
2018-12-06T02:01:20.767Z,0
2018-12-06T02:02:12.853Z,0
2018-12-06T02:03:07.153Z,0
2018-12-06T02:03:59.518Z,0
2018-12-06T02:04:52.089Z,0
2018-12-06T02:05:44.543Z,0
2018-12-06T02:06:38.423Z,0
2018-12-06T02:07:32.953Z,0
2018-12-06T02:08:27.450Z,0
2018-12-06T02:09:21.386Z,0
2018-12-06T02:10:15.750Z,0
2018-12-06T02:11:08.375Z,0
2018-12-06T02:12:00.531Z,0
2018-12-06T02:12:52.530Z,0
2018-12-06T02:13:44.347Z,0
2018-12-06T02:14:37.042Z,0
2018-12-06T02:15:29.460Z,0
2018-12-06T02:16:23.071Z,0
2018-12-06T02:17:15.635Z,0
2018-12-06T02:18:08.002Z,0
2018-12-06T02:19:00.662Z,0
2018-12-06T02:19:53.534Z,0
2018-12-06T02:20:46.544Z,0
2018-12-06T02:21:41.120Z,0
2018-12-06T02:22:33.498Z,0
2018-12-06T02:23:26.614Z,0
2018-12-06T02:24:18.855Z,0
2018-12-06T02:25:10.643Z,0
2018-12-06T02:26:04.719Z,0
2018-12-06T02:26:57.566Z,0
2018-12-06T02:27:52.585Z,0
2018-12-06T02:28:45.981Z,0
2018-12-06T02:29:38.556Z,0
2018-12-06T02:30:32.073Z,0
2018-12-06T02:31:24.531Z,0
2018-12-06T02:32:18.031Z,0
2018-12-06T02:33:02.977Z,0
2018-12-06T02:33:45.243Z,0
2018-12-06T02:34:27.005Z,0
2018-12-06T02:35:11.442Z,0
2018-12-06T02:38:41.464Z,0
2018-12-06T02:39:21.917Z,0
2018-12-06T02:40:02.345Z,0
2018-12-06T02:40:42.863Z,0
2018-12-06T02:41:23.179Z,0
2018-12-06T02:42:03.600Z,0
2018-12-06T02:44:38.526Z,0
2018-12-06T02:45:19.648Z,0
2018-12-06T02:46:00.052Z,0
2018-12-06T02:46:40.406Z,0
2018-12-06T02:47:20.814Z,0
2018-12-06T02:48:01.211Z,0
2018-12-06T02:48:41.586Z,0
2018-12-06T02:49:22.046Z,0
2018-12-06T02:50:02.382Z,0
2018-12-06T02:50:42.750Z,0
2018-12-06T02:51:23.133Z,0
2018-12-06T02:52:03.545Z,0
2018-12-06T02:52:43.970Z,0
2018-12-06T02:53:24.372Z,0
2018-12-06T02:58:10.877Z,0
2018-12-06T03:02:40.897Z,0
2018-12-06T03:03:33.257Z,0
2018-12-06T03:04:25.753Z,0
2018-12-06T03:05:19.185Z,0
2018-12-06T03:06:11.813Z,0
2018-12-06T03:07:04.791Z,0
2018-12-06T03:07:57.587Z,0
2018-12-06T03:08:50.009Z,0
2018-12-06T03:09:46.166Z,0
2018-12-06T03:10:36.415Z,0
2018-12-06T03:11:28.787Z,0
2018-12-06T03:12:21.421Z,0
2018-12-06T03:13:13.809Z,0
2018-12-06T03:14:06.409Z,0
2018-12-06T03:14:58.823Z,0
2018-12-06T03:15:51.982Z,0
2018-12-06T03:16:44.297Z,0
2018-12-06T03:17:39.205Z,0
2018-12-06T03:18:32.564Z,0
2018-12-06T03:19:25.730Z,0
2018-12-06T03:20:17.992Z,0
2018-12-06T03:21:10.893Z,0
2018-12-06T03:22:04.336Z,0
2018-12-06T03:22:56.841Z,0
2018-12-06T03:23:49.299Z,0
2018-12-06T03:24:41.242Z,0
2018-12-06T03:25:33.725Z,0
2018-12-06T03:26:26.801Z,0
2018-12-06T03:27:19.376Z,0
2018-12-06T03:28:11.932Z,0
2018-12-06T03:29:04.525Z,0
2018-12-06T03:29:57.384Z,0
2018-12-06T03:30:50.649Z,0
2018-12-06T03:31:44.006Z,0
2018-12-06T03:32:36.238Z,0
2018-12-06T03:33:29.271Z,0
2018-12-06T03:34:21.864Z,0
2018-12-06T03:35:14.308Z,0
2018-12-06T03:36:07.471Z,0
2018-12-06T03:36:59.839Z,0
2018-12-06T03:37:52.365Z,0
2018-12-06T03:38:44.843Z,0
2018-12-06T03:39:37.261Z,0
2018-12-06T03:40:29.777Z,0
2018-12-06T03:41:22.340Z,0
2018-12-06T03:42:14.835Z,0
2018-12-06T03:43:07.201Z,0
2018-12-06T03:44:00.283Z,0
2018-12-06T03:44:52.980Z,0
2018-12-06T03:45:45.993Z,0
2018-12-06T03:46:38.556Z,0
2018-12-06T03:47:30.777Z,0
2018-12-06T03:48:23.349Z,0
2018-12-06T03:49:15.831Z,0
2018-12-06T03:50:08.235Z,0
2018-12-06T03:51:00.527Z,0
2018-12-06T03:51:52.592Z,0
2018-12-06T03:52:45.155Z,0
2018-12-06T03:53:37.161Z,0
2018-12-06T03:54:29.470Z,0
2018-12-06T03:55:21.566Z,0
2018-12-06T03:56:13.773Z,0
2018-12-06T03:57:06.126Z,0
2018-12-06T03:57:58.392Z,0
2018-12-06T03:58:51.165Z,0
2018-12-06T03:59:43.572Z,0
2018-12-06T04:00:36.297Z,0
2018-12-06T04:01:28.771Z,0
2018-12-06T04:02:21.676Z,0
2018-12-06T04:03:13.798Z,0
2018-12-06T04:04:06.347Z,0
2018-12-06T04:04:58.671Z,0
2018-12-06T04:05:51.018Z,0
2018-12-06T04:06:43.191Z,0
2018-12-06T04:07:35.993Z,0
2018-12-06T04:08:28.512Z,0
2018-12-06T04:09:20.358Z,0
2018-12-06T04:10:16.284Z,0
2018-12-06T04:11:08.336Z,0
2018-12-06T04:12:00.953Z,0
2018-12-06T04:12:53.302Z,0
2018-12-06T04:13:45.650Z,0
2018-12-06T04:14:39.695Z,0
2018-12-06T04:15:32.007Z,0
2018-12-06T04:16:25.029Z,0
2018-12-06T04:17:17.302Z,0
2018-12-06T04:18:10.811Z,0
2018-12-06T04:19:02.947Z,0
2018-12-06T04:19:56.003Z,0
2018-12-06T04:20:48.304Z,0
2018-12-06T04:21:41.832Z,0
2018-12-06T04:22:34.863Z,0
2018-12-06T04:23:27.381Z,0
2018-12-06T04:24:19.554Z,0
2018-12-06T04:25:12.840Z,0
2018-12-06T04:26:04.564Z,0
2018-12-06T04:26:57.718Z,0
2018-12-06T04:27:51.118Z,0
2018-12-06T04:28:42.854Z,0
2018-12-06T05:06:20.585Z,0
2018-12-06T05:07:01.028Z,0
2018-12-06T05:07:41.278Z,0
2018-12-06T05:08:21.671Z,0
2018-12-06T05:09:02.142Z,0
2018-12-06T05:09:42.553Z,0
2018-12-06T05:10:22.839Z,0
2018-12-06T05:11:03.423Z,0
2018-12-06T05:11:43.807Z,0
2018-12-06T05:12:24.257Z,0
2018-12-06T05:13:04.582Z,0
2018-12-06T05:13:44.983Z,0
2018-12-06T05:14:25.361Z,0
2018-12-06T05:15:05.746Z,0
2018-12-06T05:15:46.162Z,0
2018-12-06T05:16:26.533Z,0
2018-12-06T05:17:07.208Z,0
2018-12-06T05:17:47.698Z,0
2018-12-06T05:18:28.241Z,0
2018-12-06T05:19:08.723Z,0
2018-12-06T05:19:49.188Z,0
2018-12-06T05:20:29.667Z,0
2018-12-06T05:21:10.114Z,0
2018-12-06T05:21:50.433Z,0
2018-12-06T05:22:30.863Z,0
2018-12-06T05:23:11.269Z,0
2018-12-06T05:23:51.744Z,0
2018-12-06T05:24:32.168Z,0
2018-12-06T05:25:12.570Z,0
2018-12-06T05:25:52.941Z,0
2018-12-06T05:26:33.300Z,0
2018-12-06T05:28:51.833Z,0
2018-12-06T05:29:31.422Z,0
2018-12-06T05:30:11.832Z,0
2018-12-06T05:30:52.222Z,0
2018-12-06T05:31:32.643Z,0
2018-12-06T05:32:13.032Z,0
2018-12-06T05:32:53.435Z,0
2018-12-06T05:33:33.825Z,0
2018-12-06T05:34:14.281Z,0
2018-12-06T05:34:54.702Z,0
2018-12-06T05:35:35.091Z,0
2018-12-06T05:36:15.433Z,0
2018-12-06T05:36:55.924Z,0
2018-12-06T05:37:36.344Z,0
2018-12-06T05:38:16.729Z,0
2018-12-06T05:38:57.115Z,0
2018-12-06T05:41:37.140Z,0
2018-12-06T05:42:17.583Z,0
2018-12-06T05:42:57.960Z,0
2018-12-06T05:43:38.315Z,0
2018-12-06T05:44:18.731Z,0
2018-12-06T05:44:59.151Z,0
2018-12-06T05:45:39.618Z,0
2018-12-06T05:46:20.083Z,0
2018-12-06T05:47:00.545Z,0
2018-12-06T05:47:40.997Z,0
2018-12-06T05:48:21.374Z,0
2018-12-06T05:49:02.101Z,0
2018-12-06T05:49:42.294Z,0
2018-12-06T05:50:22.725Z,0
2018-12-06T05:51:03.105Z,0
2018-12-06T05:51:43.516Z,0
2018-12-06T05:52:24.033Z,0
2018-12-06T05:53:04.436Z,0
2018-12-06T05:53:44.814Z,0
2018-12-06T05:54:25.301Z,0
2018-12-06T05:55:05.614Z,0
2018-12-06T05:55:46.075Z,0
2018-12-06T05:56:26.448Z,0
2018-12-06T05:57:06.862Z,0
2018-12-06T05:59:49.351Z,0
2018-12-06T06:00:42.050Z,0
2018-12-06T06:01:34.605Z,0
2018-12-06T06:02:27.254Z,0
2018-12-06T06:03:19.544Z,0
2018-12-06T06:04:11.703Z,0
2018-12-06T06:05:03.709Z,0
2018-12-06T06:05:57.062Z,0
2018-12-06T06:06:48.971Z,0
2018-12-06T06:07:41.101Z,0
2018-12-06T06:08:35.747Z,0
2018-12-06T06:09:29.078Z,0
2018-12-06T06:10:22.069Z,0
2018-12-06T06:11:16.185Z,0
2018-12-06T06:12:08.015Z,0
2018-12-06T06:13:00.619Z,0
2018-12-06T06:13:53.014Z,0
2018-12-06T06:14:45.039Z,0
2018-12-06T06:15:37.431Z,0
2018-12-06T06:16:29.154Z,0
2018-12-06T06:17:21.952Z,0
2018-12-06T06:18:14.059Z,0
2018-12-06T06:19:07.280Z,0
2018-12-06T06:20:17.925Z,0
2018-12-06T06:21:10.857Z,0
2018-12-06T06:22:01.175Z,0
2018-12-06T06:24:34.964Z,0
2018-12-06T06:25:27.177Z,0
2018-12-06T06:26:20.343Z,0
2018-12-06T06:27:14.688Z,0
2018-12-06T06:28:07.280Z,0
2018-12-06T06:28:59.887Z,0
2018-12-06T06:29:52.970Z,0
2018-12-06T06:33:34.028Z,0
2018-12-06T06:34:25.431Z,0
2018-12-06T06:35:18.549Z,0
2018-12-06T06:36:10.707Z,0
2018-12-06T06:37:02.869Z,0
2018-12-06T06:37:54.951Z,0
2018-12-06T06:38:46.865Z,0
2018-12-06T06:39:40.532Z,0
2018-12-06T06:42:18.051Z,0
2018-12-06T06:43:11.207Z,0
2018-12-06T06:44:03.735Z,0
2018-12-06T06:44:57.295Z,0
2018-12-06T06:45:49.193Z,0
2018-12-06T06:46:43.786Z,0
2018-12-06T06:47:38.763Z,0
2018-12-06T06:48:46.311Z,0
2018-12-06T06:49:51.917Z,0
2018-12-06T06:53:57.435Z,0
2018-12-06T06:54:57.008Z,0
2018-12-06T06:56:11.508Z,0
2018-12-06T06:57:12.289Z,0
2018-12-06T06:58:21.833Z,0
2018-12-06T06:59:26.154Z,0
2018-12-06T07:00:24.386Z,0
2018-12-06T07:01:20.230Z,0
2018-12-06T07:02:34.025Z,0
2018-12-06T07:03:37.342Z,0
2018-12-06T07:04:51.604Z,0
2018-12-06T07:06:08.303Z,0
2018-12-06T07:07:32.286Z,0
2018-12-06T07:11:53.669Z,0
2018-12-06T07:12:34.175Z,0
2018-12-06T07:13:14.516Z,0
2018-12-06T07:13:55.455Z,0
2018-12-06T07:14:36.039Z,0
2018-12-06T07:15:17.534Z,0
2018-12-06T07:15:58.213Z,0
2018-12-06T07:16:38.715Z,0
2018-12-06T07:17:19.272Z,0
2018-12-06T07:17:59.814Z,0
2018-12-06T07:18:40.225Z,0
2018-12-06T07:19:20.727Z,0
2018-12-06T07:20:01.389Z,0
2018-12-06T07:20:41.889Z,0
2018-12-06T07:21:22.222Z,0
2018-12-06T07:22:02.802Z,0
2018-12-06T07:22:43.235Z,0
2018-12-06T07:23:23.698Z,0
2018-12-06T07:24:05.005Z,0
2018-12-06T07:24:44.764Z,0
2018-12-06T07:27:16.867Z,0
2018-12-06T07:27:57.535Z,0
2018-12-06T07:28:38.443Z,0
2018-12-06T07:29:18.745Z,0
2018-12-06T07:29:59.241Z,0
2018-12-06T07:30:39.735Z,0
2018-12-06T07:31:20.235Z,0
2018-12-06T07:32:00.789Z,0
2018-12-06T07:32:41.206Z,0
2018-12-06T07:33:21.892Z,0
2018-12-06T07:34:02.610Z,0
2018-12-06T07:34:42.872Z,0
2018-12-06T07:35:23.271Z,0
2018-12-06T07:36:03.844Z,0
2018-12-06T07:36:44.343Z,0
2018-12-06T07:37:25.016Z,0
2018-12-06T07:38:05.453Z,0
2018-12-06T07:38:45.994Z,0
2018-12-06T07:39:28.431Z,0
2018-12-06T07:40:08.845Z,0
2018-12-06T07:40:49.423Z,0
2018-12-06T07:41:31.004Z,0
2018-12-06T07:42:10.830Z,0
2018-12-06T07:48:08.738Z,0
2018-12-06T07:48:49.288Z,0
2018-12-06T07:49:29.214Z,0
2018-12-06T07:50:10.685Z,0
2018-12-06T07:50:51.462Z,0
2018-12-06T07:53:10.075Z,0
2018-12-06T07:53:50.235Z,0
2018-12-06T07:54:30.591Z,0
2018-12-06T07:55:11.013Z,0
2018-12-06T07:55:51.634Z,0
2018-12-06T07:56:32.174Z,0
2018-12-06T07:57:12.551Z,0
2018-12-06T07:57:53.148Z,0
2018-12-06T07:58:33.521Z,0
2018-12-06T07:59:14.774Z,0
2018-12-06T07:59:55.177Z,0
2018-12-06T08:00:35.607Z,0
2018-12-06T08:01:15.986Z,0
2018-12-06T08:01:56.605Z,0
2018-12-06T08:02:37.018Z,0
2018-12-06T08:03:17.488Z,0
2018-12-06T08:07:59.474Z,0
2018-12-06T08:08:39.934Z,0
2018-12-06T08:09:20.605Z,0
2018-12-06T08:10:01.123Z,0
2018-12-06T08:10:41.672Z,0
2018-12-06T08:11:22.123Z,0
2018-12-06T08:12:02.570Z,0
2018-12-06T08:12:43.031Z,0
2018-12-06T08:13:23.510Z,0
2018-12-06T08:14:03.964Z,0
2018-12-06T08:14:44.287Z,0
2018-12-06T08:15:24.960Z,0
2018-12-06T08:16:05.449Z,0
2018-12-06T08:16:45.886Z,0
2018-12-06T08:17:26.443Z,0
2018-12-06T08:18:06.733Z,0
2018-12-06T08:18:47.133Z,0
2018-12-06T08:19:27.568Z,0
2018-12-06T08:20:07.997Z,0
2018-12-06T08:24:35.422Z,0
2018-12-06T08:25:16.383Z,0
2018-12-06T08:25:56.167Z,0
2018-12-06T08:26:36.482Z,0
2018-12-06T08:27:17.288Z,0
2018-12-06T08:27:58.002Z,0
2018-12-06T08:28:38.419Z,0
2018-12-06T08:29:19.024Z,0
2018-12-06T08:29:59.629Z,0
2018-12-06T08:30:40.090Z,5
2018-12-06T08:31:20.881Z,5
2018-12-06T08:32:01.539Z,5
2018-12-06T08:32:42.086Z,5
2018-12-06T08:33:22.515Z,5
2018-12-06T08:34:06.276Z,5
2018-12-06T08:34:43.690Z,5
2018-12-06T08:44:37.753Z,10
2018-12-06T08:45:37.256Z,10
2018-12-06T08:46:33.320Z,10
2018-12-06T08:47:32.810Z,5
2018-12-06T08:48:28.304Z,5
2018-12-06T08:51:32.211Z,5
2018-12-06T08:52:39.909Z,10
2018-12-06T08:53:36.564Z,10
2018-12-06T08:56:29.295Z,10
2018-12-06T08:57:09.837Z,10
2018-12-06T08:57:51.400Z,10
2018-12-06T08:58:32.411Z,10
2018-12-06T08:59:13.121Z,10
2018-12-06T08:59:55.616Z,10
2018-12-06T09:00:36.240Z,10
2018-12-06T09:01:16.841Z,10
2018-12-06T09:01:57.284Z,10
2018-12-06T09:02:37.736Z,10
2018-12-06T09:03:18.354Z,10
2018-12-06T09:03:58.891Z,10
2018-12-06T09:04:39.374Z,10
2018-12-06T09:05:19.981Z,10
2018-12-06T09:06:00.628Z,10
2018-12-06T09:06:41.282Z,10
2018-12-06T09:07:21.750Z,10
2018-12-06T09:08:02.304Z,10
2018-12-06T09:08:42.745Z,10
2018-12-06T09:09:23.413Z,10
2018-12-06T09:10:04.200Z,10
2018-12-06T09:10:51.284Z,10
2018-12-06T09:11:25.268Z,10
2018-12-06T09:12:05.862Z,10
2018-12-06T09:12:46.394Z,10
2018-12-06T09:13:27.063Z,10
2018-12-06T09:14:07.486Z,10
2018-12-06T09:14:48.384Z,10
2018-12-06T09:15:28.711Z,15
2018-12-06T09:16:09.317Z,15
2018-12-06T09:16:49.771Z,15
2018-12-06T09:17:31.895Z,15
2018-12-06T09:18:12.467Z,20
2018-12-06T09:18:52.896Z,20
2018-12-06T09:19:33.737Z,20
2018-12-06T09:20:14.740Z,20
2018-12-06T09:20:55.379Z,25
2018-12-06T09:21:36.243Z,25
2018-12-06T09:22:16.895Z,25
2018-12-06T09:22:57.559Z,25
2018-12-06T09:23:38.048Z,30
2018-12-06T09:24:18.598Z,30
2018-12-06T09:24:59.833Z,30
2018-12-06T09:25:40.279Z,30
2018-12-06T09:26:20.864Z,30
2018-12-06T09:27:01.300Z,30
2018-12-06T09:27:43.769Z,30
2018-12-06T09:32:57.413Z,35
2018-12-06T09:33:44.209Z,35
2018-12-06T09:34:26.130Z,35
2018-12-06T09:35:06.879Z,30
2018-12-06T09:35:48.729Z,35
2018-12-06T09:38:19.053Z,30
2018-12-06T09:39:12.916Z,30
2018-12-06T09:40:10.042Z,30
2018-12-06T09:41:04.119Z,30
2018-12-06T09:43:47.084Z,30
2018-12-06T09:44:49.934Z,25
2018-12-06T09:45:55.929Z,25
2018-12-06T09:49:00.773Z,15
2018-12-06T09:49:56.632Z,15
2018-12-06T09:50:40.221Z,15
2018-12-06T09:53:32.106Z,10
2018-12-06T09:54:19.872Z,10
2018-12-06T09:55:00.133Z,10
2018-12-06T09:55:40.588Z,10
2018-12-06T09:56:20.966Z,10
2018-12-06T09:57:01.408Z,10
2018-12-06T09:57:48.830Z,10
2018-12-06T09:58:30.001Z,10
2018-12-06T09:59:10.551Z,10
2018-12-06T09:59:55.571Z,10
2018-12-06T10:00:38.801Z,10
2018-12-06T10:01:21.347Z,10
2018-12-06T10:02:03.930Z,10
2018-12-06T10:02:45.118Z,10
2018-12-06T10:03:36.879Z,10
2018-12-06T10:04:17.276Z,10
2018-12-06T10:04:58.850Z,10
2018-12-06T10:05:41.733Z,10
2018-12-06T10:06:23.644Z,10
2018-12-06T10:07:07.140Z,10
2018-12-06T10:07:47.575Z,10
2018-12-06T10:08:30.542Z,10
2018-12-06T10:09:27.152Z,10
2018-12-06T10:10:05.767Z,10
2018-12-06T10:10:46.467Z,10
2018-12-06T10:11:26.836Z,10
2018-12-06T10:12:10.669Z,10
2018-12-06T10:12:52.926Z,15
2018-12-06T10:13:33.429Z,15
2018-12-06T10:14:14.034Z,15
2018-12-06T10:14:54.857Z,15
2018-12-06T10:15:38.758Z,15
2018-12-06T10:16:20.935Z,15
2018-12-06T10:17:08.579Z,15
2018-12-06T10:17:53.035Z,15
2018-12-06T10:18:32.761Z,15
2018-12-06T10:19:14.224Z,15
2018-12-06T10:19:55.189Z,15
2018-12-06T10:20:35.768Z,15
2018-12-06T10:21:16.406Z,15
2018-12-06T10:22:02.688Z,15
2018-12-06T10:22:43.955Z,20
2018-12-06T10:23:25.724Z,20
2018-12-06T10:24:07.016Z,20
2018-12-06T10:24:50.090Z,20
2018-12-06T10:25:30.666Z,20
2018-12-06T10:26:15.330Z,25
2018-12-06T10:28:49.936Z,30
2018-12-06T10:29:30.399Z,25
2018-12-06T11:07:25.238Z,30
2018-12-06T11:08:05.710Z,30
2018-12-06T11:08:46.113Z,30
2018-12-06T11:09:26.484Z,30
2018-12-06T11:10:14.843Z,30
2018-12-06T11:10:53.636Z,30
2018-12-06T11:11:34.154Z,30
2018-12-06T11:12:14.500Z,30
2018-12-06T11:12:54.935Z,30
2018-12-06T11:13:35.350Z,30
2018-12-06T11:14:16.358Z,30
2018-12-06T11:14:59.324Z,30
2018-12-06T11:15:41.208Z,30
2018-12-06T11:16:25.089Z,30
2018-12-06T11:21:33.943Z,35
2018-12-06T11:22:32.318Z,35
2018-12-06T11:23:40.614Z,35
2018-12-06T11:25:17.366Z,30
2018-12-06T11:26:50.994Z,30
2018-12-06T11:28:21.931Z,30
2018-12-06T11:29:40.802Z,30
2018-12-06T11:30:47.495Z,30
2018-12-06T11:31:27.210Z,30
2018-12-06T11:32:07.778Z,35
2018-12-06T11:32:49.330Z,35
2018-12-06T11:33:31.295Z,35
2018-12-06T11:34:20.296Z,30
2018-12-06T11:35:01.121Z,35
2018-12-06T11:35:47.587Z,30
2018-12-06T11:36:28.373Z,30
2018-12-06T11:37:09.550Z,30
2018-12-06T11:37:57.904Z,25
2018-12-06T11:38:39.209Z,20
2018-12-06T11:43:05.911Z,15
2018-12-06T11:45:20.534Z,10
2018-12-06T11:46:03.625Z,10
2018-12-06T11:46:43.157Z,10
2018-12-06T11:47:24.645Z,15
2018-12-06T11:48:06.734Z,15
2018-12-06T11:48:49.197Z,15
2018-12-06T11:49:29.387Z,15
2018-12-06T11:50:10.236Z,15
2018-12-06T11:50:50.942Z,15
2018-12-06T11:51:32.477Z,15
2018-12-06T11:52:14.545Z,15
2018-12-06T11:52:55.025Z,15
2018-12-06T11:53:35.873Z,15
2018-12-06T11:54:18.976Z,20
2018-12-06T11:55:01.062Z,20
2018-12-06T11:55:42.791Z,15
2018-12-06T11:56:25.241Z,15
2018-12-06T11:57:06.624Z,15
2018-12-06T11:57:48.614Z,15
2018-12-06T11:58:31.756Z,15
2018-12-06T11:59:19.000Z,15
2018-12-06T12:00:00.456Z,10
2018-12-06T12:00:43.131Z,10
2018-12-06T12:01:27.064Z,10
2018-12-06T12:02:12.500Z,10
2018-12-06T12:02:55.608Z,10
2018-12-06T12:05:43.531Z,10
2018-12-06T12:06:45.576Z,10
2018-12-06T12:09:31.379Z,10
2018-12-06T12:10:11.085Z,10
2018-12-06T12:10:51.420Z,10
2018-12-06T12:11:31.988Z,5
2018-12-06T12:12:13.528Z,5
2018-12-06T12:12:53.168Z,5
2018-12-06T12:13:33.684Z,5
2018-12-06T12:14:15.119Z,5
2018-12-06T12:14:55.620Z,5
2018-12-06T12:15:36.606Z,5
2018-12-06T12:16:17.329Z,5
2018-12-06T12:16:59.411Z,5
2018-12-06T12:17:41.403Z,5
2018-12-06T12:18:22.106Z,10
2018-12-06T12:19:02.688Z,10
2018-12-06T12:19:43.285Z,10
2018-12-06T12:20:26.563Z,10
2018-12-06T12:21:07.203Z,10
2018-12-06T12:21:47.736Z,10
2018-12-06T12:22:28.424Z,10
2018-12-06T12:23:09.030Z,10
2018-12-06T12:23:49.692Z,10
2018-12-06T12:24:30.039Z,10
2018-12-06T12:25:10.471Z,5
2018-12-06T12:25:50.970Z,5
2018-12-06T12:26:32.305Z,5
2018-12-06T12:27:12.355Z,5
2018-12-06T12:27:52.770Z,10
2018-12-06T12:28:33.251Z,10
2018-12-06T12:29:14.947Z,10
2018-12-06T12:29:56.385Z,10
2018-12-06T12:30:40.265Z,10
2018-12-06T12:31:21.318Z,10
2018-12-06T12:32:01.831Z,10
2018-12-06T12:32:43.283Z,5
2018-12-06T12:33:23.110Z,5
2018-12-06T12:34:03.652Z,5
2018-12-06T12:34:51.324Z,5
2018-12-06T12:35:35.165Z,5
2018-12-06T12:36:22.719Z,5
2018-12-06T12:37:04.068Z,5
2018-12-06T12:37:45.197Z,5
2018-12-06T12:38:26.429Z,5
2018-12-06T12:39:06.649Z,5
2018-12-06T12:39:47.090Z,5
2018-12-06T12:40:30.257Z,5
2018-12-06T12:41:10.624Z,5
2018-12-06T12:41:51.089Z,5
2018-12-06T12:42:31.538Z,5
2018-12-06T12:43:11.988Z,5
2018-12-06T12:43:52.417Z,5
2018-12-06T12:44:32.805Z,5
2018-12-06T12:45:13.241Z,5
2018-12-06T12:45:53.685Z,5
2018-12-06T12:46:34.278Z,5
2018-12-06T12:47:14.651Z,5
2018-12-06T12:49:53.166Z,5
2018-12-06T12:50:52.109Z,5
2018-12-06T12:51:54.876Z,5
2018-12-06T12:53:05.648Z,5
2018-12-06T12:56:14.883Z,5
2018-12-06T12:57:10.648Z,5
2018-12-06T12:58:06.194Z,5
2018-12-06T12:59:04.535Z,5
2018-12-06T12:59:58.815Z,5
2018-12-06T13:00:54.546Z,5
2018-12-06T13:01:51.691Z,5
2018-12-06T13:02:45.864Z,5
2018-12-06T13:03:45.461Z,5
2018-12-06T13:04:44.339Z,5
2018-12-06T13:05:44.494Z,5
2018-12-06T13:06:46.103Z,5
2018-12-06T13:07:49.058Z,5
2018-12-06T13:08:51.337Z,5
2018-12-06T13:09:55.350Z,5
2018-12-06T13:12:36.926Z,5
2018-12-06T13:13:34.476Z,5
2018-12-06T13:14:29.445Z,5
2018-12-06T13:15:41.277Z,5
2018-12-06T13:16:46.020Z,5
2018-12-06T13:17:40.442Z,5
2018-12-06T13:18:37.700Z,5
2018-12-06T13:19:35.415Z,5
2018-12-06T13:23:00.199Z,10
2018-12-06T13:23:57.815Z,10
2018-12-06T13:24:59.415Z,10
2018-12-06T13:25:55.627Z,10
2018-12-06T13:26:52.193Z,10
2018-12-06T13:27:46.916Z,10
2018-12-06T13:28:45.150Z,10
2018-12-06T13:29:44.212Z,10
2018-12-06T13:33:19.253Z,10
2018-12-06T13:34:17.064Z,10
2018-12-06T13:35:15.336Z,10
2018-12-06T13:36:16.556Z,15
2018-12-06T13:37:12.605Z,15
2018-12-06T13:38:10.386Z,15
2018-12-06T13:39:08.558Z,10
2018-12-06T13:40:05.181Z,10
2018-12-06T13:41:08.750Z,10
2018-12-06T13:42:10.014Z,10
2018-12-06T13:43:13.303Z,10
2018-12-06T13:44:11.623Z,10
2018-12-06T13:45:16.037Z,10
2018-12-06T13:46:13.309Z,10
2018-12-06T13:47:08.954Z,10
2018-12-06T13:48:09.748Z,10
2018-12-06T13:49:08.908Z,10
2018-12-06T13:50:07.940Z,10
2018-12-06T13:51:05.994Z,10
2018-12-06T13:52:10.520Z,10
2018-12-06T13:55:12.431Z,10
2018-12-06T13:56:08.353Z,10
2018-12-06T13:57:12.157Z,10
2018-12-06T13:58:08.047Z,10
2018-12-06T13:59:01.429Z,10
2018-12-06T13:59:54.828Z,10
2018-12-06T14:00:48.186Z,10
2018-12-06T14:01:41.859Z,10
2018-12-06T14:02:38.274Z,10
2018-12-06T14:03:36.497Z,10
2018-12-06T14:04:33.294Z,10
2018-12-06T14:05:31.969Z,5
2018-12-06T14:06:36.488Z,5
2018-12-06T14:07:32.713Z,5
2018-12-06T14:08:30.630Z,5
2018-12-06T14:09:47.610Z,5
2018-12-06T14:12:23.357Z,5
2018-12-06T14:13:42.890Z,5
2018-12-06T14:14:45.729Z,5
2018-12-06T14:15:50.462Z,5
2018-12-06T14:17:08.981Z,5
2018-12-06T14:19:59.977Z,5
2018-12-06T14:21:03.021Z,5
2018-12-06T14:22:18.591Z,5
2018-12-06T14:23:20.604Z,5
2018-12-06T14:24:32.742Z,5
2018-12-06T17:10:01.429Z,0
2018-12-06T17:10:57.460Z,0
2018-12-06T17:11:56.810Z,0
2018-12-06T17:12:52.803Z,0
2018-12-06T17:13:49.883Z,0
2018-12-06T17:14:48.425Z,0
2018-12-06T17:15:59.264Z,0
2018-12-06T17:17:00.294Z,0
2018-12-06T17:17:59.058Z,0
2018-12-06T17:19:04.239Z,0
2018-12-06T17:20:09.456Z,0
2018-12-06T17:22:56.803Z,0
2018-12-06T17:23:37.233Z,0
2018-12-06T17:24:17.635Z,0
2018-12-06T17:24:59.008Z,0
2018-12-06T17:25:39.460Z,0
2018-12-06T17:26:19.984Z,0
2018-12-06T17:27:00.608Z,0
2018-12-06T17:27:44.471Z,0
2018-12-06T17:28:25.153Z,0